sensor_id;sensor_type;location;lat;lon;timestamp;P1;durP1;ratioP1;P2;durP2;ratioP2
69744;SDS011;57015;50.120;-5.168;2023-12-20T00:01:19;7.63;;;0.80;;
69744;SDS011;57015;50.120;-5.168;2023-12-20T00:03:44;6.67;;;0.50;;
69744;SDS011;57015;50.120;-5.168;2023-12-20T00:06:09;6.00;;;0.83;;
69744;SDS011;57015;50.120;-5.168;2023-12-20T00:08:35;4.27;;;0.87;;
69744;SDS011;57015;50.120;-5.168;2023-12-20T00:11:00;6.60;;;0.70;;
69744;SDS011;57015;50.120;-5.168;2023-12-20T00:13:26;5.28;;;0.60;;
69744;SDS011;57015;50.120;-5.168;2023-12-20T00:15:51;4.73;;;0.77;;
69744;SDS011;57015;50.120;-5.168;2023-12-20T00:18:16;5.10;;;0.87;;
69744;SDS011;57015;50.120;-5.168;2023-12-20T00:20:42;5.00;;;0.63;;
69744;SDS011;57015;50.120;-5.168;2023-12-20T00:23:07;7.03;;;0.67;;
69744;SDS011;57015;50.120;-5.168;2023-12-20T00:25:33;6.77;;;0.90;;
69744;SDS011;57015;50.120;-5.168;2023-12-20T00:27:59;11.82;;;1.10;;
69744;SDS011;57015;50.120;-5.168;2023-12-20T00:30:25;5.23;;;0.40;;
69744;SDS011;57015;50.120;-5.168;2023-12-20T00:32:50;8.13;;;0.80;;
69744;SDS011;57015;50.120;-5.168;2023-12-20T00:35:16;6.47;;;0.75;;
69744;SDS011;57015;50.120;-5.168;2023-12-20T00:37:41;8.70;;;0.80;;
69744;SDS011;57015;50.120;-5.168;2023-12-20T00:40:07;5.10;;;0.53;;
69744;SDS011;57015;50.120;-5.168;2023-12-20T00:42:33;9.85;;;0.60;;
69744;SDS011;57015;50.120;-5.168;2023-12-20T00:44:59;5.63;;;0.60;;
69744;SDS011;57015;50.120;-5.168;2023-12-20T00:47:25;6.32;;;0.63;;
69744;SDS011;57015;50.120;-5.168;2023-12-20T00:49:50;8.37;;;0.80;;
69744;SDS011;57015;50.120;-5.168;2023-12-20T00:52:16;5.10;;;0.68;;
69744;SDS011;57015;50.120;-5.168;2023-12-20T00:54:42;8.13;;;0.98;;
69744;SDS011;57015;50.120;-5.168;2023-12-20T00:57:08;5.40;;;0.82;;
69744;SDS011;57015;50.120;-5.168;2023-12-20T00:59:34;9.63;;;1.00;;
69744;SDS011;57015;50.120;-5.168;2023-12-20T01:01:59;6.65;;;0.82;;
69744;SDS011;57015;50.120;-5.168;2023-12-20T01:04:24;10.33;;;0.70;;
69744;SDS011;57015;50.120;-5.168;2023-12-20T01:06:50;5.97;;;0.80;;
69744;SDS011;57015;50.120;-5.168;2023-12-20T01:09:15;8.50;;;1.20;;
69744;SDS011;57015;50.120;-5.168;2023-12-20T01:11:40;6.93;;;0.90;;
69744;SDS011;57015;50.120;-5.168;2023-12-20T01:14:06;5.03;;;0.80;;
69744;SDS011;57015;50.120;-5.168;2023-12-20T01:16:31;7.07;;;1.03;;
69744;SDS011;57015;50.120;-5.168;2023-12-20T01:18:56;8.30;;;1.17;;
69744;SDS011;57015;50.120;-5.168;2023-12-20T01:21:22;6.72;;;0.80;;
69744;SDS011;57015;50.120;-5.168;2023-12-20T01:23:47;7.53;;;0.80;;
69744;SDS011;57015;50.120;-5.168;2023-12-20T01:26:12;7.03;;;1.13;;
69744;SDS011;57015;50.120;-5.168;2023-12-20T01:28:39;9.40;;;1.00;;
69744;SDS011;57015;50.120;-5.168;2023-12-20T01:31:05;6.33;;;0.90;;
69744;SDS011;57015;50.120;-5.168;2023-12-20T01:33:31;6.50;;;0.90;;
69744;SDS011;57015;50.120;-5.168;2023-12-20T01:35:56;9.67;;;1.30;;
69744;SDS011;57015;50.120;-5.168;2023-12-20T01:38:21;6.00;;;0.73;;
69744;SDS011;57015;50.120;-5.168;2023-12-20T01:40:47;4.30;;;0.82;;
69744;SDS011;57015;50.120;-5.168;2023-12-20T01:43:12;10.87;;;1.40;;
69744;SDS011;57015;50.120;-5.168;2023-12-20T01:45:38;6.57;;;0.80;;
69744;SDS011;57015;50.120;-5.168;2023-12-20T01:48:03;5.67;;;1.03;;
69744;SDS011;57015;50.120;-5.168;2023-12-20T01:50:30;10.77;;;0.85;;
69744;SDS011;57015;50.120;-5.168;2023-12-20T01:52:56;5.53;;;0.80;;
69744;SDS011;57015;50.120;-5.168;2023-12-20T01:55:23;6.82;;;0.90;;
69744;SDS011;57015;50.120;-5.168;2023-12-20T01:57:49;8.00;;;1.20;;
69744;SDS011;57015;50.120;-5.168;2023-12-20T02:00:15;10.75;;;1.65;;
69744;SDS011;57015;50.120;-5.168;2023-12-20T02:02:41;10.60;;;1.38;;
69744;SDS011;57015;50.120;-5.168;2023-12-20T02:05:07;5.70;;;0.90;;
69744;SDS011;57015;50.120;-5.168;2023-12-20T02:07:32;6.95;;;1.42;;
69744;SDS011;57015;50.120;-5.168;2023-12-20T02:10:00;10.37;;;1.17;;
69744;SDS011;57015;50.120;-5.168;2023-12-20T02:12:25;7.82;;;1.15;;
69744;SDS011;57015;50.120;-5.168;2023-12-20T02:14:51;9.20;;;1.10;;
69744;SDS011;57015;50.120;-5.168;2023-12-20T02:17:16;10.63;;;1.10;;
69744;SDS011;57015;50.120;-5.168;2023-12-20T02:19:42;10.93;;;1.13;;
69744;SDS011;57015;50.120;-5.168;2023-12-20T02:22:11;7.75;;;1.00;;
69744;SDS011;57015;50.120;-5.168;2023-12-20T02:24:36;6.25;;;0.85;;
69744;SDS011;57015;50.120;-5.168;2023-12-20T02:27:02;10.25;;;0.73;;
69744;SDS011;57015;50.120;-5.168;2023-12-20T02:29:28;8.90;;;0.90;;
69744;SDS011;57015;50.120;-5.168;2023-12-20T02:31:53;6.73;;;1.30;;
69744;SDS011;57015;50.120;-5.168;2023-12-20T02:34:19;9.43;;;0.70;;
69744;SDS011;57015;50.120;-5.168;2023-12-20T02:36:44;10.73;;;1.37;;
69744;SDS011;57015;50.120;-5.168;2023-12-20T02:39:09;10.87;;;1.27;;
69744;SDS011;57015;50.120;-5.168;2023-12-20T02:41:35;10.27;;;1.20;;
69744;SDS011;57015;50.120;-5.168;2023-12-20T02:44:01;8.43;;;2.07;;
69744;SDS011;57015;50.120;-5.168;2023-12-20T02:46:26;12.93;;;2.33;;
69744;SDS011;57015;50.120;-5.168;2023-12-20T02:48:52;10.40;;;0.90;;
69744;SDS011;57015;50.120;-5.168;2023-12-20T02:51:17;8.87;;;1.27;;
69744;SDS011;57015;50.120;-5.168;2023-12-20T02:53:42;7.10;;;1.50;;
69744;SDS011;57015;50.120;-5.168;2023-12-20T02:56:08;8.27;;;1.00;;
69744;SDS011;57015;50.120;-5.168;2023-12-20T02:58:33;6.47;;;1.03;;
69744;SDS011;57015;50.120;-5.168;2023-12-20T03:00:59;6.00;;;0.77;;
69744;SDS011;57015;50.120;-5.168;2023-12-20T03:03:24;8.07;;;0.57;;
69744;SDS011;57015;50.120;-5.168;2023-12-20T03:05:50;9.37;;;1.53;;
69744;SDS011;57015;50.120;-5.168;2023-12-20T03:08:15;8.37;;;1.00;;
69744;SDS011;57015;50.120;-5.168;2023-12-20T03:10:40;11.87;;;1.20;;
69744;SDS011;57015;50.120;-5.168;2023-12-20T03:13:06;7.00;;;1.45;;
69744;SDS011;57015;50.120;-5.168;2023-12-20T03:15:31;7.30;;;0.60;;
69744;SDS011;57015;50.120;-5.168;2023-12-20T03:17:57;10.23;;;1.23;;
69744;SDS011;57015;50.120;-5.168;2023-12-20T03:20:24;9.85;;;1.38;;
69744;SDS011;57015;50.120;-5.168;2023-12-20T03:22:51;7.83;;;1.10;;
69744;SDS011;57015;50.120;-5.168;2023-12-20T03:25:16;9.07;;;1.52;;
69744;SDS011;57015;50.120;-5.168;2023-12-20T03:27:41;7.00;;;1.20;;
69744;SDS011;57015;50.120;-5.168;2023-12-20T03:30:07;8.47;;;1.10;;
69744;SDS011;57015;50.120;-5.168;2023-12-20T03:32:32;14.27;;;1.07;;
69744;SDS011;57015;50.120;-5.168;2023-12-20T03:34:58;7.50;;;0.93;;
69744;SDS011;57015;50.120;-5.168;2023-12-20T03:37:23;14.07;;;1.73;;
69744;SDS011;57015;50.120;-5.168;2023-12-20T03:39:48;9.97;;;0.80;;
69744;SDS011;57015;50.120;-5.168;2023-12-20T03:42:14;13.17;;;1.07;;
69744;SDS011;57015;50.120;-5.168;2023-12-20T03:44:39;12.00;;;1.33;;
69744;SDS011;57015;50.120;-5.168;2023-12-20T03:47:05;10.02;;;1.13;;
69744;SDS011;57015;50.120;-5.168;2023-12-20T03:49:31;13.80;;;1.93;;
69744;SDS011;57015;50.120;-5.168;2023-12-20T03:51:56;10.50;;;1.13;;
69744;SDS011;57015;50.120;-5.168;2023-12-20T03:54:21;5.27;;;0.80;;
69744;SDS011;57015;50.120;-5.168;2023-12-20T03:56:47;9.27;;;0.85;;
69744;SDS011;57015;50.120;-5.168;2023-12-20T03:59:12;6.90;;;1.00;;
69744;SDS011;57015;50.120;-5.168;2023-12-20T04:01:37;8.97;;;0.90;;
69744;SDS011;57015;50.120;-5.168;2023-12-20T04:04:03;10.93;;;0.90;;
69744;SDS011;57015;50.120;-5.168;2023-12-20T04:06:28;8.97;;;0.97;;
69744;SDS011;57015;50.120;-5.168;2023-12-20T04:08:54;12.33;;;1.10;;
69744;SDS011;57015;50.120;-5.168;2023-12-20T04:11:19;8.38;;;1.52;;
69744;SDS011;57015;50.120;-5.168;2023-12-20T04:13:44;9.07;;;1.15;;
69744;SDS011;57015;50.120;-5.168;2023-12-20T04:16:10;9.00;;;0.70;;
69744;SDS011;57015;50.120;-5.168;2023-12-20T04:18:35;9.93;;;1.13;;
69744;SDS011;57015;50.120;-5.168;2023-12-20T04:21:01;9.27;;;1.03;;
69744;SDS011;57015;50.120;-5.168;2023-12-20T04:23:26;12.48;;;1.75;;
69744;SDS011;57015;50.120;-5.168;2023-12-20T04:25:52;10.07;;;1.13;;
69744;SDS011;57015;50.120;-5.168;2023-12-20T04:28:18;7.53;;;1.10;;
69744;SDS011;57015;50.120;-5.168;2023-12-20T04:30:43;11.57;;;1.30;;
69744;SDS011;57015;50.120;-5.168;2023-12-20T04:33:08;14.20;;;0.80;;
69744;SDS011;57015;50.120;-5.168;2023-12-20T04:35:34;15.33;;;2.03;;
69744;SDS011;57015;50.120;-5.168;2023-12-20T04:37:59;14.10;;;1.70;;
69744;SDS011;57015;50.120;-5.168;2023-12-20T04:40:25;11.90;;;1.10;;
69744;SDS011;57015;50.120;-5.168;2023-12-20T04:42:50;9.73;;;1.10;;
69744;SDS011;57015;50.120;-5.168;2023-12-20T04:45:15;11.68;;;1.48;;
69744;SDS011;57015;50.120;-5.168;2023-12-20T04:47:42;12.50;;;1.10;;
69744;SDS011;57015;50.120;-5.168;2023-12-20T04:50:07;11.23;;;1.30;;
69744;SDS011;57015;50.120;-5.168;2023-12-20T04:52:33;8.40;;;1.33;;
69744;SDS011;57015;50.120;-5.168;2023-12-20T04:54:58;15.02;;;0.90;;
69744;SDS011;57015;50.120;-5.168;2023-12-20T04:57:24;8.97;;;0.70;;
69744;SDS011;57015;50.120;-5.168;2023-12-20T04:59:50;7.83;;;1.00;;
69744;SDS011;57015;50.120;-5.168;2023-12-20T05:02:15;13.07;;;1.10;;
69744;SDS011;57015;50.120;-5.168;2023-12-20T05:04:40;8.10;;;1.50;;
69744;SDS011;57015;50.120;-5.168;2023-12-20T05:07:06;9.32;;;1.40;;
69744;SDS011;57015;50.120;-5.168;2023-12-20T05:09:32;9.97;;;1.10;;
69744;SDS011;57015;50.120;-5.168;2023-12-20T05:11:57;7.07;;;1.80;;
69744;SDS011;57015;50.120;-5.168;2023-12-20T05:14:22;11.57;;;1.30;;
69744;SDS011;57015;50.120;-5.168;2023-12-20T05:16:48;8.47;;;1.03;;
69744;SDS011;57015;50.120;-5.168;2023-12-20T05:19:13;8.67;;;0.90;;
69744;SDS011;57015;50.120;-5.168;2023-12-20T05:21:39;14.83;;;1.03;;
69744;SDS011;57015;50.120;-5.168;2023-12-20T05:24:04;15.20;;;1.25;;
69744;SDS011;57015;50.120;-5.168;2023-12-20T05:26:30;12.57;;;1.10;;
69744;SDS011;57015;50.120;-5.168;2023-12-20T05:28:55;11.53;;;1.87;;
69744;SDS011;57015;50.120;-5.168;2023-12-20T05:31:21;11.10;;;1.53;;
69744;SDS011;57015;50.120;-5.168;2023-12-20T05:33:46;11.02;;;0.88;;
69744;SDS011;57015;50.120;-5.168;2023-12-20T05:36:11;12.18;;;1.00;;
69744;SDS011;57015;50.120;-5.168;2023-12-20T05:38:38;10.77;;;1.53;;
69744;SDS011;57015;50.120;-5.168;2023-12-20T05:41:04;12.45;;;1.65;;
69744;SDS011;57015;50.120;-5.168;2023-12-20T05:43:29;11.97;;;1.50;;
69744;SDS011;57015;50.120;-5.168;2023-12-20T05:45:55;16.23;;;1.70;;
69744;SDS011;57015;50.120;-5.168;2023-12-20T05:48:20;7.63;;;1.67;;
69744;SDS011;57015;50.120;-5.168;2023-12-20T05:50:45;8.90;;;1.33;;
69744;SDS011;57015;50.120;-5.168;2023-12-20T05:53:11;6.93;;;1.27;;
69744;SDS011;57015;50.120;-5.168;2023-12-20T05:55:36;10.13;;;1.90;;
69744;SDS011;57015;50.120;-5.168;2023-12-20T05:58:02;9.50;;;1.10;;
69744;SDS011;57015;50.120;-5.168;2023-12-20T06:00:28;10.65;;;1.85;;
69744;SDS011;57015;50.120;-5.168;2023-12-20T06:02:53;16.17;;;1.60;;
69744;SDS011;57015;50.120;-5.168;2023-12-20T06:05:18;13.40;;;1.73;;
69744;SDS011;57015;50.120;-5.168;2023-12-20T06:07:44;16.40;;;1.37;;
69744;SDS011;57015;50.120;-5.168;2023-12-20T06:10:12;14.15;;;1.40;;
69744;SDS011;57015;50.120;-5.168;2023-12-20T06:12:38;25.55;;;3.60;;
69744;SDS011;57015;50.120;-5.168;2023-12-20T06:15:04;17.43;;;2.33;;
69744;SDS011;57015;50.120;-5.168;2023-12-20T06:17:30;14.18;;;1.52;;
69744;SDS011;57015;50.120;-5.168;2023-12-20T06:19:56;14.90;;;2.27;;
69744;SDS011;57015;50.120;-5.168;2023-12-20T06:22:22;13.02;;;1.58;;
69744;SDS011;57015;50.120;-5.168;2023-12-20T06:24:47;14.23;;;1.65;;
69744;SDS011;57015;50.120;-5.168;2023-12-20T06:27:12;12.30;;;1.47;;
69744;SDS011;57015;50.120;-5.168;2023-12-20T06:29:38;15.60;;;1.37;;
69744;SDS011;57015;50.120;-5.168;2023-12-20T06:32:04;20.07;;;1.73;;
69744;SDS011;57015;50.120;-5.168;2023-12-20T06:34:29;12.45;;;1.33;;
69744;SDS011;57015;50.120;-5.168;2023-12-20T06:36:54;10.77;;;1.17;;
69744;SDS011;57015;50.120;-5.168;2023-12-20T06:39:20;11.10;;;1.27;;
69744;SDS011;57015;50.120;-5.168;2023-12-20T06:41:45;12.03;;;0.97;;
69744;SDS011;57015;50.120;-5.168;2023-12-20T06:44:11;14.83;;;1.73;;
69744;SDS011;57015;50.120;-5.168;2023-12-20T06:46:36;13.13;;;1.70;;
69744;SDS011;57015;50.120;-5.168;2023-12-20T06:49:01;13.00;;;0.98;;
69744;SDS011;57015;50.120;-5.168;2023-12-20T06:51:27;13.07;;;1.65;;
69744;SDS011;57015;50.120;-5.168;2023-12-20T06:53:53;12.47;;;1.97;;
69744;SDS011;57015;50.120;-5.168;2023-12-20T06:56:18;13.47;;;1.80;;
69744;SDS011;57015;50.120;-5.168;2023-12-20T06:58:43;13.13;;;1.77;;
69744;SDS011;57015;50.120;-5.168;2023-12-20T07:01:12;13.70;;;2.03;;
69744;SDS011;57015;50.120;-5.168;2023-12-20T07:03:38;13.97;;;1.20;;
69744;SDS011;57015;50.120;-5.168;2023-12-20T07:06:03;12.05;;;1.45;;
69744;SDS011;57015;50.120;-5.168;2023-12-20T07:08:29;13.70;;;1.93;;
69744;SDS011;57015;50.120;-5.168;2023-12-20T07:10:54;12.70;;;2.03;;
69744;SDS011;57015;50.120;-5.168;2023-12-20T07:13:19;12.17;;;1.37;;
69744;SDS011;57015;50.120;-5.168;2023-12-20T07:15:45;15.80;;;1.73;;
69744;SDS011;57015;50.120;-5.168;2023-12-20T07:18:10;10.93;;;1.35;;
69744;SDS011;57015;50.120;-5.168;2023-12-20T07:20:36;13.00;;;1.63;;
69744;SDS011;57015;50.120;-5.168;2023-12-20T07:23:01;7.70;;;1.57;;
69744;SDS011;57015;50.120;-5.168;2023-12-20T07:25:26;9.93;;;0.93;;
69744;SDS011;57015;50.120;-5.168;2023-12-20T07:27:52;10.53;;;1.77;;
69744;SDS011;57015;50.120;-5.168;2023-12-20T07:30:17;6.27;;;0.97;;
69744;SDS011;57015;50.120;-5.168;2023-12-20T07:32:43;10.87;;;1.43;;
69744;SDS011;57015;50.120;-5.168;2023-12-20T07:35:08;6.93;;;1.20;;
69744;SDS011;57015;50.120;-5.168;2023-12-20T07:37:33;10.60;;;1.10;;
69744;SDS011;57015;50.120;-5.168;2023-12-20T07:39:59;10.30;;;0.90;;
69744;SDS011;57015;50.120;-5.168;2023-12-20T07:42:24;10.53;;;0.90;;
69744;SDS011;57015;50.120;-5.168;2023-12-20T07:44:49;14.63;;;1.30;;
69744;SDS011;57015;50.120;-5.168;2023-12-20T07:47:15;13.27;;;1.00;;
69744;SDS011;57015;50.120;-5.168;2023-12-20T07:49:44;10.40;;;1.48;;
69744;SDS011;57015;50.120;-5.168;2023-12-20T07:52:09;10.70;;;1.20;;
69744;SDS011;57015;50.120;-5.168;2023-12-20T07:54:34;6.00;;;0.93;;
69744;SDS011;57015;50.120;-5.168;2023-12-20T07:57:00;11.53;;;1.20;;
69744;SDS011;57015;50.120;-5.168;2023-12-20T07:59:25;11.40;;;1.13;;
69744;SDS011;57015;50.120;-5.168;2023-12-20T08:01:50;7.20;;;1.00;;
69744;SDS011;57015;50.120;-5.168;2023-12-20T08:04:17;6.30;;;0.90;;
69744;SDS011;57015;50.120;-5.168;2023-12-20T08:06:42;5.63;;;0.90;;
69744;SDS011;57015;50.120;-5.168;2023-12-20T08:09:08;10.23;;;1.05;;
69744;SDS011;57015;50.120;-5.168;2023-12-20T08:11:33;13.90;;;1.57;;
69744;SDS011;57015;50.120;-5.168;2023-12-20T08:13:58;10.77;;;1.33;;
69744;SDS011;57015;50.120;-5.168;2023-12-20T08:16:24;11.27;;;2.43;;
69744;SDS011;57015;50.120;-5.168;2023-12-20T08:18:50;11.67;;;1.50;;
69744;SDS011;57015;50.120;-5.168;2023-12-20T08:21:15;9.65;;;2.25;;
69744;SDS011;57015;50.120;-5.168;2023-12-20T08:23:41;6.77;;;0.70;;
69744;SDS011;57015;50.120;-5.168;2023-12-20T08:26:06;11.03;;;1.33;;
69744;SDS011;57015;50.120;-5.168;2023-12-20T08:28:33;14.30;;;1.65;;
69744;SDS011;57015;50.120;-5.168;2023-12-20T08:30:59;7.78;;;1.00;;
69744;SDS011;57015;50.120;-5.168;2023-12-20T08:33:25;7.73;;;1.23;;
69744;SDS011;57015;50.120;-5.168;2023-12-20T08:35:50;16.23;;;2.00;;
69744;SDS011;57015;50.120;-5.168;2023-12-20T08:38:15;13.23;;;1.35;;
69744;SDS011;57015;50.120;-5.168;2023-12-20T08:40:42;9.30;;;1.60;;
69744;SDS011;57015;50.120;-5.168;2023-12-20T08:43:08;12.98;;;1.60;;
69744;SDS011;57015;50.120;-5.168;2023-12-20T08:45:33;7.50;;;1.70;;
69744;SDS011;57015;50.120;-5.168;2023-12-20T08:47:59;6.63;;;1.07;;
69744;SDS011;57015;50.120;-5.168;2023-12-20T08:50:25;8.55;;;1.25;;
69744;SDS011;57015;50.120;-5.168;2023-12-20T08:52:50;13.67;;;2.27;;
69744;SDS011;57015;50.120;-5.168;2023-12-20T08:55:16;13.57;;;1.50;;
69744;SDS011;57015;50.120;-5.168;2023-12-20T08:57:43;12.65;;;1.02;;
69744;SDS011;57015;50.120;-5.168;2023-12-20T09:00:09;9.18;;;1.10;;
69744;SDS011;57015;50.120;-5.168;2023-12-20T09:02:34;7.75;;;0.90;;
69744;SDS011;57015;50.120;-5.168;2023-12-20T09:05:03;16.60;;;2.20;;
69744;SDS011;57015;50.120;-5.168;2023-12-20T09:07:28;10.82;;;1.38;;
69744;SDS011;57015;50.120;-5.168;2023-12-20T09:09:56;13.95;;;1.30;;
69744;SDS011;57015;50.120;-5.168;2023-12-20T09:12:22;11.33;;;1.67;;
69744;SDS011;57015;50.120;-5.168;2023-12-20T09:14:48;14.80;;;2.05;;
69744;SDS011;57015;50.120;-5.168;2023-12-20T09:17:15;8.10;;;1.10;;
69744;SDS011;57015;50.120;-5.168;2023-12-20T09:19:41;11.27;;;1.10;;
69744;SDS011;57015;50.120;-5.168;2023-12-20T09:22:08;10.93;;;1.40;;
69744;SDS011;57015;50.120;-5.168;2023-12-20T09:24:34;9.63;;;1.27;;
69744;SDS011;57015;50.120;-5.168;2023-12-20T09:26:59;10.67;;;1.20;;
69744;SDS011;57015;50.120;-5.168;2023-12-20T09:29:24;14.20;;;1.40;;
69744;SDS011;57015;50.120;-5.168;2023-12-20T09:31:50;8.30;;;1.60;;
69744;SDS011;57015;50.120;-5.168;2023-12-20T09:34:15;13.45;;;1.63;;
69744;SDS011;57015;50.120;-5.168;2023-12-20T09:36:42;12.63;;;1.30;;
69744;SDS011;57015;50.120;-5.168;2023-12-20T09:39:12;11.65;;;1.40;;
69744;SDS011;57015;50.120;-5.168;2023-12-20T09:41:40;11.82;;;1.42;;
69744;SDS011;57015;50.120;-5.168;2023-12-20T09:44:08;10.90;;;1.30;;
69744;SDS011;57015;50.120;-5.168;2023-12-20T09:46:33;9.10;;;1.43;;
69744;SDS011;57015;50.120;-5.168;2023-12-20T09:49:00;13.23;;;1.00;;
69744;SDS011;57015;50.120;-5.168;2023-12-20T09:51:26;11.77;;;1.40;;
69744;SDS011;57015;50.120;-5.168;2023-12-20T09:53:54;11.50;;;1.85;;
69744;SDS011;57015;50.120;-5.168;2023-12-20T09:56:19;12.13;;;1.07;;
69744;SDS011;57015;50.120;-5.168;2023-12-20T09:58:45;10.27;;;1.50;;
69744;SDS011;57015;50.120;-5.168;2023-12-20T10:01:10;13.33;;;1.20;;
69744;SDS011;57015;50.120;-5.168;2023-12-20T10:03:36;12.97;;;1.27;;
69744;SDS011;57015;50.120;-5.168;2023-12-20T10:06:05;17.63;;;1.52;;
69744;SDS011;57015;50.120;-5.168;2023-12-20T10:08:31;16.20;;;1.90;;
69744;SDS011;57015;50.120;-5.168;2023-12-20T10:10:57;7.85;;;1.17;;
69744;SDS011;57015;50.120;-5.168;2023-12-20T10:13:27;9.68;;;1.20;;
69744;SDS011;57015;50.120;-5.168;2023-12-20T10:15:52;12.77;;;1.80;;
69744;SDS011;57015;50.120;-5.168;2023-12-20T10:18:20;15.52;;;1.48;;
69744;SDS011;57015;50.120;-5.168;2023-12-20T10:20:45;14.27;;;1.53;;
69744;SDS011;57015;50.120;-5.168;2023-12-20T10:23:11;14.80;;;2.75;;
69744;SDS011;57015;50.120;-5.168;2023-12-20T10:25:37;14.63;;;1.83;;
69744;SDS011;57015;50.120;-5.168;2023-12-20T10:28:10;14.73;;;1.57;;
69744;SDS011;57015;50.120;-5.168;2023-12-20T10:30:36;12.90;;;1.58;;
69744;SDS011;57015;50.120;-5.168;2023-12-20T10:33:02;10.40;;;1.77;;
69744;SDS011;57015;50.120;-5.168;2023-12-20T10:35:27;14.80;;;1.83;;
69744;SDS011;57015;50.120;-5.168;2023-12-20T10:37:55;17.13;;;1.93;;
69744;SDS011;57015;50.120;-5.168;2023-12-20T10:40:24;15.38;;;2.15;;
69744;SDS011;57015;50.120;-5.168;2023-12-20T10:42:51;10.82;;;1.38;;
69744;SDS011;57015;50.120;-5.168;2023-12-20T10:45:16;15.23;;;1.70;;
69744;SDS011;57015;50.120;-5.168;2023-12-20T10:47:43;9.37;;;1.00;;
69744;SDS011;57015;50.120;-5.168;2023-12-20T10:50:11;15.43;;;1.48;;
69744;SDS011;57015;50.120;-5.168;2023-12-20T10:52:36;11.63;;;1.83;;
69744;SDS011;57015;50.120;-5.168;2023-12-20T10:55:03;15.10;;;1.17;;
69744;SDS011;57015;50.120;-5.168;2023-12-20T10:57:28;12.32;;;1.40;;
69744;SDS011;57015;50.120;-5.168;2023-12-20T10:59:55;13.07;;;1.23;;
69744;SDS011;57015;50.120;-5.168;2023-12-20T11:02:24;9.93;;;1.20;;
69744;SDS011;57015;50.120;-5.168;2023-12-20T11:04:55;14.02;;;2.35;;
69744;SDS011;57015;50.120;-5.168;2023-12-20T11:07:29;12.95;;;1.55;;
69744;SDS011;57015;50.120;-5.168;2023-12-20T11:10:10;15.40;;;1.57;;
69744;SDS011;57015;50.120;-5.168;2023-12-20T11:12:55;10.05;;;1.98;;
69744;SDS011;57015;50.120;-5.168;2023-12-20T11:15:24;9.50;;;1.20;;
69744;SDS011;57015;50.120;-5.168;2023-12-20T11:17:56;13.60;;;1.73;;
69744;SDS011;57015;50.120;-5.168;2023-12-20T11:20:44;18.90;;;2.03;;
69744;SDS011;57015;50.120;-5.168;2023-12-20T11:23:08;14.07;;;1.63;;
69744;SDS011;57015;50.120;-5.168;2023-12-20T11:25:47;16.27;;;1.85;;
69744;SDS011;57015;50.120;-5.168;2023-12-20T11:28:23;12.30;;;1.88;;
69744;SDS011;57015;50.120;-5.168;2023-12-20T11:30:56;17.25;;;2.53;;
69744;SDS011;57015;50.120;-5.168;2023-12-20T11:33:37;11.00;;;1.80;;
69744;SDS011;57015;50.120;-5.168;2023-12-20T11:36:07;18.00;;;2.22;;
69744;SDS011;57015;50.120;-5.168;2023-12-20T11:38:38;18.92;;;2.15;;
69744;SDS011;57015;50.120;-5.168;2023-12-20T11:41:05;16.47;;;2.10;;
69744;SDS011;57015;50.120;-5.168;2023-12-20T11:43:37;22.42;;;2.50;;
69744;SDS011;57015;50.120;-5.168;2023-12-20T11:46:07;20.85;;;2.30;;
69744;SDS011;57015;50.120;-5.168;2023-12-20T11:48:39;22.70;;;1.98;;
69744;SDS011;57015;50.120;-5.168;2023-12-20T11:51:09;19.53;;;2.30;;
69744;SDS011;57015;50.120;-5.168;2023-12-20T11:53:35;20.80;;;2.08;;
69744;SDS011;57015;50.120;-5.168;2023-12-20T11:56:02;15.93;;;2.50;;
69744;SDS011;57015;50.120;-5.168;2023-12-20T11:58:28;20.35;;;2.58;;
69744;SDS011;57015;50.120;-5.168;2023-12-20T12:00:54;14.50;;;2.57;;
69744;SDS011;57015;50.120;-5.168;2023-12-20T12:03:20;14.30;;;1.70;;
69744;SDS011;57015;50.120;-5.168;2023-12-20T12:05:46;10.37;;;1.63;;
69744;SDS011;57015;50.120;-5.168;2023-12-20T12:08:12;16.88;;;1.60;;
69744;SDS011;57015;50.120;-5.168;2023-12-20T12:10:38;12.57;;;1.80;;
69744;SDS011;57015;50.120;-5.168;2023-12-20T12:13:03;14.20;;;2.63;;
69744;SDS011;57015;50.120;-5.168;2023-12-20T12:15:29;13.40;;;2.17;;
69744;SDS011;57015;50.120;-5.168;2023-12-20T12:17:55;15.98;;;2.33;;
69744;SDS011;57015;50.120;-5.168;2023-12-20T12:20:21;22.85;;;3.42;;
69744;SDS011;57015;50.120;-5.168;2023-12-20T12:22:57;15.93;;;2.23;;
69744;SDS011;57015;50.120;-5.168;2023-12-20T12:25:23;16.05;;;1.52;;
69744;SDS011;57015;50.120;-5.168;2023-12-20T12:27:48;10.60;;;1.97;;
69744;SDS011;57015;50.120;-5.168;2023-12-20T12:30:15;11.10;;;1.80;;
69744;SDS011;57015;50.120;-5.168;2023-12-20T12:32:43;16.25;;;2.40;;
69744;SDS011;57015;50.120;-5.168;2023-12-20T12:35:09;11.88;;;2.22;;
69744;SDS011;57015;50.120;-5.168;2023-12-20T12:37:35;15.33;;;1.80;;
69744;SDS011;57015;50.120;-5.168;2023-12-20T12:40:04;14.45;;;2.22;;
69744;SDS011;57015;50.120;-5.168;2023-12-20T12:42:30;12.57;;;1.83;;
69744;SDS011;57015;50.120;-5.168;2023-12-20T12:44:55;18.13;;;2.73;;
69744;SDS011;57015;50.120;-5.168;2023-12-20T12:47:23;13.20;;;2.20;;
69744;SDS011;57015;50.120;-5.168;2023-12-20T12:49:49;16.20;;;2.73;;
69744;SDS011;57015;50.120;-5.168;2023-12-20T12:52:16;17.70;;;2.60;;
69744;SDS011;57015;50.120;-5.168;2023-12-20T12:54:42;14.53;;;1.80;;
69744;SDS011;57015;50.120;-5.168;2023-12-20T12:57:07;12.10;;;2.90;;
69744;SDS011;57015;50.120;-5.168;2023-12-20T12:59:33;14.10;;;1.90;;
69744;SDS011;57015;50.120;-5.168;2023-12-20T13:01:58;17.42;;;2.03;;
69744;SDS011;57015;50.120;-5.168;2023-12-20T13:04:23;16.50;;;2.23;;
69744;SDS011;57015;50.120;-5.168;2023-12-20T13:06:49;14.87;;;2.10;;
69744;SDS011;57015;50.120;-5.168;2023-12-20T13:09:14;17.57;;;2.37;;
69744;SDS011;57015;50.120;-5.168;2023-12-20T13:11:40;16.10;;;2.13;;
69744;SDS011;57015;50.120;-5.168;2023-12-20T13:14:05;10.95;;;2.38;;
69744;SDS011;57015;50.120;-5.168;2023-12-20T13:16:32;14.80;;;2.17;;
69744;SDS011;57015;50.120;-5.168;2023-12-20T13:18:59;20.73;;;3.97;;
69744;SDS011;57015;50.120;-5.168;2023-12-20T13:21:24;18.65;;;2.13;;
69744;SDS011;57015;50.120;-5.168;2023-12-20T13:23:50;21.67;;;2.60;;
69744;SDS011;57015;50.120;-5.168;2023-12-20T13:26:15;15.37;;;2.87;;
69744;SDS011;57015;50.120;-5.168;2023-12-20T13:28:41;15.57;;;1.93;;
69744;SDS011;57015;50.120;-5.168;2023-12-20T13:31:07;13.48;;;2.60;;
69744;SDS011;57015;50.120;-5.168;2023-12-20T13:33:32;21.90;;;2.57;;
69744;SDS011;57015;50.120;-5.168;2023-12-20T13:35:57;21.77;;;3.60;;
69744;SDS011;57015;50.120;-5.168;2023-12-20T13:38:23;19.87;;;2.20;;
69744;SDS011;57015;50.120;-5.168;2023-12-20T13:40:48;21.80;;;2.55;;
69744;SDS011;57015;50.120;-5.168;2023-12-20T13:43:14;18.23;;;2.83;;
69744;SDS011;57015;50.120;-5.168;2023-12-20T13:45:41;15.27;;;2.07;;
69744;SDS011;57015;50.120;-5.168;2023-12-20T13:48:07;17.13;;;2.78;;
69744;SDS011;57015;50.120;-5.168;2023-12-20T13:50:32;13.80;;;2.10;;
69744;SDS011;57015;50.120;-5.168;2023-12-20T13:52:58;20.63;;;2.40;;
69744;SDS011;57015;50.120;-5.168;2023-12-20T13:55:23;18.63;;;2.08;;
69744;SDS011;57015;50.120;-5.168;2023-12-20T13:57:50;17.40;;;2.65;;
69744;SDS011;57015;50.120;-5.168;2023-12-20T14:00:16;16.65;;;2.58;;
69744;SDS011;57015;50.120;-5.168;2023-12-20T14:02:41;24.23;;;2.63;;
69744;SDS011;57015;50.120;-5.168;2023-12-20T14:05:08;17.75;;;2.65;;
69744;SDS011;57015;50.120;-5.168;2023-12-20T14:07:34;21.80;;;5.10;;
69744;SDS011;57015;50.120;-5.168;2023-12-20T14:09:59;18.17;;;2.57;;
69744;SDS011;57015;50.120;-5.168;2023-12-20T14:12:25;18.40;;;2.43;;
69744;SDS011;57015;50.120;-5.168;2023-12-20T14:14:50;29.60;;;3.53;;
69744;SDS011;57015;50.120;-5.168;2023-12-20T14:17:16;22.15;;;2.85;;
69744;SDS011;57015;50.120;-5.168;2023-12-20T14:19:42;21.45;;;2.95;;